createdAt,value
2022-10-25T00:01:37.166Z,20.70
2022-10-25T00:04:09.611Z,23.10
2022-10-25T00:06:42.040Z,21.30
2022-10-25T00:09:14.247Z,19.50
2022-10-25T00:11:46.537Z,22.70
2022-10-25T00:14:20.771Z,25.30
2022-10-25T00:16:53.513Z,23.30
2022-10-25T00:19:25.992Z,22.80
2022-10-25T00:21:58.029Z,20.80
2022-10-25T00:27:01.059Z,24.40
2022-10-25T00:29:33.651Z,39.60
2022-10-25T00:32:05.831Z,40.90
2022-10-25T00:34:38.052Z,31.80
2022-10-25T00:37:10.062Z,31.10
2022-10-25T00:42:20.574Z,24.80
2022-10-25T00:44:55.668Z,20.20
2022-10-25T00:47:52.796Z,16.90
2022-10-25T00:50:45.297Z,15.90
2022-10-25T00:53:26.602Z,17.40
2022-10-25T00:56:04.873Z,19.00
2022-10-25T00:58:40.261Z,22.70
2022-10-25T01:01:14.669Z,14.50
2022-10-25T01:03:50.582Z,14.70
2022-10-25T01:06:27.958Z,10.90
2022-10-25T01:09:02.058Z,10.90
2022-10-25T01:11:36.229Z,11.40
2022-10-25T01:14:10.516Z,14.10
2022-10-25T01:16:54.396Z,16.50
2022-10-25T01:19:46.997Z,12.10
2022-10-25T01:22:24.790Z,16.00
2022-10-25T01:25:24.995Z,13.70
2022-10-25T01:28:08.373Z,9.50
2022-10-25T01:31:18.216Z,11.70
2022-10-25T01:33:57.742Z,11.20
2022-10-25T01:36:40.097Z,11.80
2022-10-25T01:39:18.828Z,8.70
2022-10-25T01:42:01.473Z,11.40
2022-10-25T01:44:45.487Z,8.20
2022-10-25T01:47:22.423Z,10.30
2022-10-25T01:49:59.379Z,9.10
2022-10-25T01:52:31.854Z,10.80
2022-10-25T01:55:07.307Z,13.00
2022-10-25T01:57:53.983Z,17.70
2022-10-25T02:00:27.307Z,14.00
2022-10-25T02:03:18.246Z,14.30
2022-10-25T02:06:05.925Z,10.90
2022-10-25T02:08:45.103Z,11.30
2022-10-25T02:11:24.486Z,12.40
2022-10-25T02:14:05.861Z,9.10
2022-10-25T02:16:41.904Z,12.30
2022-10-25T02:19:16.443Z,12.70
2022-10-25T02:21:50.669Z,10.50
2022-10-25T02:24:26.589Z,8.80
2022-10-25T02:27:00.229Z,9.50
2022-10-25T02:29:34.417Z,10.50
2022-10-25T02:32:07.056Z,6.50
2022-10-25T02:34:40.494Z,9.90
2022-10-25T02:37:12.772Z,8.90
2022-10-25T02:39:46.280Z,10.50
2022-10-25T02:42:18.367Z,11.40
2022-10-25T02:44:50.498Z,11.30
2022-10-25T02:47:22.856Z,11.60
2022-10-25T02:49:54.988Z,8.50
2022-10-25T02:52:27.579Z,7.90
2022-10-25T02:54:59.707Z,10.00
2022-10-25T02:57:37.583Z,8.60
2022-10-25T03:02:46.298Z,8.60
2022-10-25T03:05:18.802Z,5.80
2022-10-25T03:07:51.167Z,8.50
2022-10-25T03:10:23.368Z,8.70
2022-10-25T03:12:55.364Z,7.50
2022-10-25T03:17:58.358Z,10.20
2022-10-25T03:20:30.392Z,11.90
2022-10-25T03:25:34.599Z,19.80
2022-10-25T03:28:07.287Z,18.20
2022-10-25T03:30:43.150Z,18.70
2022-10-25T03:33:15.339Z,14.80
2022-10-25T03:35:50.414Z,11.10
2022-10-25T03:38:22.968Z,13.30
2022-10-25T03:40:55.989Z,7.30
2022-10-25T03:43:28.707Z,8.50
2022-10-25T03:46:00.997Z,7.70
2022-10-25T03:48:33.269Z,9.70
2022-10-25T03:51:05.623Z,11.00
2022-10-25T03:53:37.756Z,6.00
2022-10-25T03:56:11.003Z,7.70
2022-10-25T03:58:43.093Z,7.70
2022-10-25T04:01:15.791Z,20.00
2022-10-25T04:03:47.771Z,24.00
2022-10-25T04:08:50.966Z,8.10
2022-10-25T04:11:23.205Z,8.30
2022-10-25T04:13:55.532Z,8.40
2022-10-25T04:16:27.816Z,5.70
2022-10-25T04:19:00.134Z,9.90
2022-10-25T04:21:32.570Z,6.70
2022-10-25T04:24:04.878Z,8.50
2022-10-25T04:26:37.704Z,8.30
2022-10-25T04:29:11.639Z,7.60
2022-10-25T04:31:43.878Z,11.20
2022-10-25T04:34:15.997Z,9.90
2022-10-25T04:36:48.019Z,14.00
2022-10-25T04:41:50.800Z,21.70
2022-10-25T04:44:23.058Z,18.30
2022-10-25T04:46:55.513Z,16.50
2022-10-25T04:49:27.605Z,15.30
2022-10-25T04:54:31.366Z,16.60
2022-10-25T04:59:34.102Z,16.30
2022-10-25T05:02:06.456Z,21.90
2022-10-25T05:04:39.021Z,15.70
2022-10-25T05:07:11.666Z,18.50
2022-10-25T05:09:46.613Z,19.90
2022-10-25T05:12:20.034Z,15.80
2022-10-25T05:14:52.309Z,17.40
2022-10-25T05:17:24.461Z,18.60
2022-10-25T05:19:56.690Z,23.30
2022-10-25T05:22:29.384Z,26.20
2022-10-25T05:25:01.595Z,15.40
2022-10-25T05:27:37.593Z,10.90
2022-10-25T05:30:12.535Z,11.80
2022-10-25T05:32:44.884Z,9.90
2022-10-25T05:35:17.476Z,9.70
2022-10-25T05:37:50.369Z,8.70
2022-10-25T05:40:22.489Z,9.50
2022-10-25T05:42:55.993Z,11.50
2022-10-25T05:45:28.507Z,8.90
2022-10-25T05:48:00.716Z,12.40
2022-10-25T05:50:33.075Z,11.40
2022-10-25T05:53:05.127Z,10.20
2022-10-25T05:55:37.617Z,9.30
2022-10-25T05:58:10.407Z,9.50
2022-10-25T06:00:42.889Z,8.90
2022-10-25T06:03:15.122Z,9.70
2022-10-25T06:05:47.328Z,8.90
2022-10-25T06:08:19.390Z,7.90
2022-10-25T06:13:22.012Z,7.40
2022-10-25T06:15:54.277Z,8.70
2022-10-25T06:18:26.464Z,8.50
2022-10-25T06:21:01.686Z,7.70
2022-10-25T06:23:36.145Z,8.50
2022-10-25T06:26:10.792Z,13.80
2022-10-25T06:28:43.784Z,16.50
2022-10-25T06:31:17.473Z,12.90
2022-10-25T06:33:49.882Z,13.70
2022-10-25T06:36:24.056Z,12.90
2022-10-25T06:39:05.228Z,17.20
2022-10-25T06:46:05.955Z,16.60
2022-10-25T06:48:39.130Z,15.90
2022-10-25T06:51:11.776Z,19.60
2022-10-25T06:53:44.657Z,15.20
2022-10-25T06:56:17.348Z,13.50
2022-10-25T06:58:49.590Z,11.60
2022-10-25T07:01:23.037Z,14.70
2022-10-25T07:03:56.285Z,16.10
2022-10-25T07:09:09.447Z,15.80
2022-10-25T07:11:41.934Z,11.30
2022-10-25T07:14:14.207Z,15.60
2022-10-25T07:16:46.473Z,13.90
2022-10-25T07:19:18.641Z,12.60
2022-10-25T07:21:50.829Z,12.90
2022-10-25T07:24:23.203Z,10.70
2022-10-25T07:26:55.311Z,12.90
2022-10-25T07:29:27.623Z,12.80
2022-10-25T07:32:00.002Z,14.00
2022-10-25T07:34:32.316Z,9.60
2022-10-25T07:37:07.149Z,10.50
2022-10-25T07:39:39.374Z,13.40
2022-10-25T07:42:11.535Z,85.80
2022-10-25T07:44:43.669Z,35.30
2022-10-25T07:47:16.354Z,16.00
2022-10-25T07:49:48.535Z,11.80
2022-10-25T07:52:21.356Z,9.20
2022-10-25T07:54:53.505Z,8.10
2022-10-25T07:57:25.691Z,7.00
2022-10-25T07:59:58.290Z,11.00
2022-10-25T08:02:30.586Z,9.90
2022-10-25T08:05:02.661Z,7.20
2022-10-25T08:07:34.974Z,7.90
2022-10-25T08:10:08.511Z,9.50
2022-10-25T08:12:40.701Z,15.70
2022-10-25T08:15:13.699Z,16.60
2022-10-25T08:17:46.757Z,14.50
2022-10-25T08:20:19.329Z,10.20
2022-10-25T08:22:51.575Z,7.70
2022-10-25T08:25:26.149Z,8.50
2022-10-25T08:27:59.134Z,9.10
2022-10-25T08:30:31.550Z,8.20
2022-10-25T08:33:04.687Z,10.10
2022-10-25T08:35:38.995Z,7.60
2022-10-25T08:38:11.104Z,9.40
2022-10-25T08:40:57.503Z,8.90
2022-10-25T08:43:46.320Z,12.60
2022-10-25T08:46:23.267Z,9.10
2022-10-25T08:49:03.841Z,7.90
2022-10-25T08:51:39.928Z,3.20
2022-10-25T08:54:22.386Z,4.20
2022-10-25T08:57:16.650Z,3.20
2022-10-25T08:59:53.385Z,6.60
2022-10-25T09:02:33.549Z,5.10
2022-10-25T09:05:11.383Z,3.20
2022-10-25T09:08:04.676Z,4.30
2022-10-25T09:10:50.180Z,7.70
2022-10-25T09:13:36.926Z,4.40
2022-10-25T09:16:16.633Z,7.10
2022-10-25T09:18:52.394Z,5.60
2022-10-25T09:21:36.190Z,3.90
2022-10-25T09:24:17.495Z,7.30
2022-10-25T09:27:01.600Z,6.80
2022-10-25T09:29:38.375Z,6.60
2022-10-25T09:32:23.771Z,6.00
2022-10-25T09:34:57.671Z,3.90
2022-10-25T09:37:32.384Z,5.70
2022-10-25T09:40:11.679Z,4.10
2022-10-25T09:42:48.131Z,3.40
2022-10-25T09:45:26.400Z,7.20
2022-10-25T09:48:09.560Z,6.70
2022-10-25T09:50:49.042Z,4.40
2022-10-25T09:53:23.938Z,4.80
2022-10-25T09:55:59.080Z,4.60
2022-10-25T09:58:33.224Z,7.90
2022-10-25T10:01:10.299Z,3.50
2022-10-25T10:03:44.576Z,5.00
2022-10-25T10:06:22.995Z,8.40
2022-10-25T10:09:00.785Z,5.00
2022-10-25T10:11:35.184Z,6.00
2022-10-25T10:14:13.225Z,4.30
2022-10-25T10:16:49.297Z,5.00
2022-10-25T10:19:23.273Z,3.70
2022-10-25T10:21:57.521Z,6.40
2022-10-25T10:24:32.751Z,7.10
2022-10-25T10:27:09.749Z,3.70
2022-10-25T10:29:57.177Z,4.70
2022-10-25T10:32:34.259Z,6.30
2022-10-25T10:35:09.349Z,4.40
2022-10-25T10:37:41.592Z,4.20
2022-10-25T10:40:27.092Z,4.60
2022-10-25T10:42:59.359Z,3.80
2022-10-25T10:45:31.615Z,5.00
2022-10-25T10:48:04.567Z,5.00
2022-10-25T10:50:36.908Z,4.60
2022-10-25T10:53:21.101Z,4.20
2022-10-25T10:55:54.520Z,5.20
2022-10-25T10:58:29.462Z,7.80
2022-10-25T11:01:03.991Z,5.40
2022-10-25T11:04:00.895Z,4.80
2022-10-25T11:06:41.571Z,5.50
2022-10-25T11:09:23.192Z,5.10
2022-10-25T11:12:12.630Z,3.50
2022-10-25T11:14:45.739Z,7.50
2022-10-25T11:17:23.535Z,5.10
2022-10-25T11:20:15.555Z,4.20
2022-10-25T11:25:35.106Z,4.70
2022-10-25T11:28:20.457Z,8.00
2022-10-25T11:31:02.300Z,6.80
2022-10-25T11:33:46.873Z,3.50
2022-10-25T11:36:49.468Z,5.60
2022-10-25T11:39:38.167Z,5.10
2022-10-25T11:42:34.043Z,3.70
2022-10-25T11:45:23.790Z,3.60
2022-10-25T11:48:13.280Z,5.40
2022-10-25T11:50:55.223Z,6.10
2022-10-25T11:56:15.073Z,5.60
2022-10-25T11:58:57.731Z,4.00
2022-10-25T12:01:50.767Z,4.10
2022-10-25T12:05:02.820Z,5.00
2022-10-25T12:07:41.761Z,4.60
2022-10-25T12:10:22.364Z,5.50
2022-10-25T12:12:58.445Z,5.20
2022-10-25T12:15:37.223Z,4.50
2022-10-25T12:18:15.900Z,4.10
2022-10-25T12:20:50.619Z,4.70
2022-10-25T12:23:26.868Z,4.80
2022-10-25T12:26:04.024Z,5.00
2022-10-25T12:28:45.976Z,5.50
2022-10-25T12:33:56.513Z,5.60
2022-10-25T12:36:35.508Z,3.40
2022-10-25T12:39:17.848Z,4.90
2022-10-25T12:41:54.619Z,4.80
2022-10-25T12:44:44.780Z,4.80
2022-10-25T12:47:32.690Z,9.60
2022-10-25T12:50:23.201Z,3.40
2022-10-25T12:53:29.110Z,3.70
2022-10-25T12:56:09.272Z,3.10
2022-10-25T12:58:58.509Z,3.20
2022-10-25T13:01:47.079Z,4.30
2022-10-25T13:04:41.322Z,6.70
2022-10-25T13:07:15.821Z,3.90
2022-10-25T13:09:48.450Z,6.70
2022-10-25T13:12:26.410Z,3.10
2022-10-25T13:14:59.868Z,3.10
2022-10-25T13:18:04.548Z,6.90
2022-10-25T13:20:51.719Z,3.80
2022-10-25T13:24:02.766Z,3.10
2022-10-25T13:27:18.908Z,6.60
2022-10-25T13:30:05.885Z,3.30
2022-10-25T13:32:41.295Z,5.80
2022-10-25T13:35:40.371Z,4.50
2022-10-25T13:38:20.543Z,7.50
2022-10-25T13:41:16.465Z,4.10
2022-10-25T13:44:04.089Z,6.20
2022-10-25T13:46:39.865Z,5.10
2022-10-25T13:49:42.504Z,3.50
2022-10-25T13:52:29.645Z,6.20
2022-10-25T13:55:06.083Z,7.80
2022-10-25T13:57:53.495Z,4.60
2022-10-25T14:00:39.379Z,6.70
2022-10-25T14:03:34.871Z,5.10
2022-10-25T14:06:25.903Z,3.70
2022-10-25T14:09:09.940Z,6.40
2022-10-25T14:11:49.896Z,10.50
2022-10-25T14:14:32.734Z,7.10
2022-10-25T14:17:16.211Z,4.80
2022-10-25T14:19:52.272Z,11.40
2022-10-25T14:22:32.851Z,6.90
2022-10-25T14:25:09.253Z,6.30
2022-10-25T14:27:41.478Z,5.50
2022-10-25T14:30:31.080Z,6.90
2022-10-25T14:33:06.527Z,5.90
2022-10-25T14:35:49.078Z,5.30
2022-10-25T14:38:23.533Z,5.10
2022-10-25T14:40:57.968Z,6.60
2022-10-25T14:43:33.094Z,7.40
2022-10-25T14:46:14.958Z,5.40
2022-10-25T14:48:48.780Z,6.00
2022-10-25T14:51:25.264Z,5.50
2022-10-25T14:53:59.894Z,7.00
2022-10-25T14:56:36.559Z,5.40
2022-10-25T14:59:19.135Z,6.30
2022-10-25T15:01:57.397Z,8.10
2022-10-25T15:04:31.979Z,7.00
2022-10-25T15:07:04.857Z,7.10
2022-10-25T15:09:42.866Z,6.20
2022-10-25T15:12:21.848Z,10.30
2022-10-25T15:14:54.214Z,9.40
2022-10-25T15:17:31.345Z,6.60
2022-10-25T15:20:07.109Z,8.10
2022-10-25T15:22:48.559Z,9.70
2022-10-25T15:25:29.804Z,23.70
2022-10-25T15:28:12.600Z,25.80
2022-10-25T15:30:58.729Z,56.80
2022-10-25T15:33:33.568Z,54.10
2022-10-25T15:36:07.116Z,40.30
2022-10-25T15:39:06.820Z,45.90
2022-10-25T15:44:02.658Z,15.10
2022-10-25T15:46:38.183Z,12.50
2022-10-25T15:49:12.685Z,28.30
2022-10-25T15:51:46.689Z,19.50
2022-10-25T15:54:21.261Z,16.60
2022-10-25T15:56:54.235Z,21.20
2022-10-25T15:59:26.537Z,14.40
2022-10-25T16:01:59.414Z,13.80
2022-10-25T16:04:31.671Z,10.20
2022-10-25T16:07:03.835Z,12.40
2022-10-25T16:09:36.376Z,10.40
2022-10-25T16:12:13.057Z,13.40
2022-10-25T16:14:45.630Z,10.30
2022-10-25T16:17:17.917Z,10.30
2022-10-25T16:19:50.158Z,11.90
2022-10-25T16:22:22.304Z,9.90
2022-10-25T16:24:54.723Z,12.80
2022-10-25T16:27:26.973Z,9.80
2022-10-25T16:29:59.240Z,7.30
2022-10-25T16:32:31.532Z,9.30
2022-10-25T16:35:03.804Z,9.80
2022-10-25T16:37:36.062Z,9.40
2022-10-25T16:40:10.129Z,10.40
2022-10-25T16:42:42.402Z,9.70
2022-10-25T16:45:20.325Z,8.40
2022-10-25T16:47:52.698Z,8.40
2022-10-25T16:50:25.492Z,7.80
2022-10-25T16:52:59.640Z,13.60
2022-10-25T16:55:32.383Z,11.20
2022-10-25T16:58:05.206Z,11.30
2022-10-25T17:00:37.252Z,9.90
2022-10-25T17:03:09.897Z,12.00
2022-10-25T17:05:42.557Z,10.50
2022-10-25T17:08:14.949Z,11.40
2022-10-25T17:10:47.439Z,10.60
2022-10-25T17:13:20.245Z,14.10
2022-10-25T17:15:52.620Z,15.70
2022-10-25T17:18:27.006Z,9.80
2022-10-25T17:20:59.730Z,11.50
2022-10-25T17:23:31.947Z,11.20
2022-10-25T17:26:05.007Z,13.00
2022-10-25T17:28:40.069Z,27.90
2022-10-25T17:31:16.674Z,29.80
2022-10-25T17:33:48.859Z,25.50
2022-10-25T17:36:21.855Z,12.70
2022-10-25T17:38:55.092Z,25.30
2022-10-25T17:41:27.708Z,24.10
2022-10-25T17:44:00.408Z,21.60
2022-10-25T17:46:33.762Z,22.90
2022-10-25T17:49:06.865Z,15.90
2022-10-25T17:51:39.093Z,16.30
2022-10-25T17:54:11.758Z,12.70
2022-10-25T17:56:44.090Z,11.90
2022-10-25T17:59:16.226Z,13.80
2022-10-25T18:01:48.806Z,13.60
2022-10-25T18:04:21.437Z,14.60
2022-10-25T18:06:53.773Z,14.50
2022-10-25T18:09:25.908Z,13.30
2022-10-25T18:11:58.358Z,12.40
2022-10-25T18:14:30.581Z,13.40
2022-10-25T18:17:02.688Z,14.60
2022-10-25T18:19:34.890Z,14.20
2022-10-25T18:22:07.118Z,15.00
2022-10-25T18:24:39.695Z,17.50
2022-10-25T18:27:15.038Z,21.70
2022-10-25T18:29:48.219Z,17.80
2022-10-25T18:32:22.601Z,22.10
2022-10-25T18:34:55.039Z,19.70
2022-10-25T18:37:27.214Z,19.40
2022-10-25T18:39:59.482Z,50.20
2022-10-25T18:42:31.601Z,44.10
2022-10-25T18:45:04.259Z,32.50
2022-10-25T18:47:36.553Z,31.50
2022-10-25T18:50:10.377Z,45.80
2022-10-25T18:52:42.561Z,123.60
2022-10-25T18:55:15.108Z,82.70
2022-10-25T18:57:47.735Z,161.20
2022-10-25T19:00:22.588Z,147.20
2022-10-25T19:02:56.442Z,111.80
2022-10-25T19:05:32.091Z,111.50
2022-10-25T19:08:04.285Z,109.70
2022-10-25T19:10:38.297Z,97.90
2022-10-25T19:13:19.011Z,135.20
2022-10-25T19:15:51.506Z,130.10
2022-10-25T19:18:26.687Z,118.50
2022-10-25T19:21:03.496Z,76.20
2022-10-25T19:23:37.051Z,38.50
2022-10-25T19:26:11.639Z,25.90
2022-10-25T19:28:44.151Z,21.70
2022-10-25T19:31:18.455Z,34.80
2022-10-25T19:33:52.805Z,46.40
2022-10-25T19:36:24.904Z,26.70
2022-10-25T19:38:57.121Z,23.50
2022-10-25T19:41:29.348Z,25.40
2022-10-25T19:44:02.949Z,33.40
2022-10-25T19:46:35.721Z,33.50
2022-10-25T19:49:08.090Z,34.80
2022-10-25T19:51:40.268Z,45.50
2022-10-25T19:54:12.473Z,25.30
2022-10-25T19:56:44.762Z,21.70
2022-10-25T19:59:17.393Z,23.00
2022-10-25T20:01:49.707Z,19.50
2022-10-25T20:04:22.117Z,17.80
2022-10-25T20:06:54.586Z,17.30
2022-10-25T20:09:27.464Z,14.90
2022-10-25T20:12:00.110Z,14.40
2022-10-25T20:14:33.591Z,17.40
2022-10-25T20:17:06.024Z,18.00
2022-10-25T20:19:38.314Z,23.50
2022-10-25T20:22:10.710Z,17.60
2022-10-25T20:24:42.953Z,14.70
2022-10-25T20:27:15.033Z,18.90
2022-10-25T20:32:17.839Z,14.10
2022-10-25T20:34:50.104Z,16.30
2022-10-25T20:37:22.583Z,23.70
2022-10-25T20:39:55.033Z,29.30
2022-10-25T20:42:27.158Z,24.00
2022-10-25T20:44:59.593Z,25.20
2022-10-25T20:47:31.908Z,24.50
2022-10-25T20:50:04.071Z,25.30
2022-10-25T20:52:39.777Z,25.70
2022-10-25T20:55:21.254Z,27.80
2022-10-25T20:57:53.313Z,29.10
2022-10-25T21:02:56.147Z,25.10
2022-10-25T21:05:28.565Z,26.30
2022-10-25T21:08:00.665Z,29.20
2022-10-25T21:10:33.058Z,27.20
2022-10-25T21:13:05.308Z,27.40
2022-10-25T21:15:37.889Z,24.50
2022-10-25T21:18:10.144Z,23.80
2022-10-25T21:20:42.600Z,19.60
2022-10-25T21:23:15.105Z,18.20
2022-10-25T21:25:47.192Z,15.60
2022-10-25T21:28:19.599Z,20.20
2022-10-25T21:30:51.903Z,17.90
2022-10-25T21:33:24.203Z,19.30
2022-10-25T21:36:02.556Z,18.40
2022-10-25T21:38:34.829Z,18.40
2022-10-25T21:41:12.330Z,19.70
2022-10-25T21:43:48.911Z,23.50
2022-10-25T21:46:22.780Z,19.40
2022-10-25T21:48:55.155Z,21.60
2022-10-25T21:51:27.440Z,19.90
2022-10-25T21:54:01.323Z,19.90
2022-10-25T21:56:33.703Z,20.10
2022-10-25T21:59:06.072Z,25.00
2022-10-25T22:01:38.287Z,21.10
2022-10-25T22:04:10.901Z,18.60
2022-10-25T22:06:43.345Z,21.00
2022-10-25T22:09:15.710Z,16.10
2022-10-25T22:11:50.670Z,17.40
2022-10-25T22:14:22.869Z,18.70
2022-10-25T22:16:55.248Z,19.30
2022-10-25T22:19:27.698Z,17.50
2022-10-25T22:21:59.880Z,17.00
2022-10-25T22:24:31.925Z,17.40
2022-10-25T22:29:34.872Z,16.70
2022-10-25T22:32:07.195Z,15.70
2022-10-25T22:34:39.359Z,15.20
2022-10-25T22:37:11.483Z,13.60
2022-10-25T22:39:43.802Z,14.00
2022-10-25T22:42:16.019Z,13.90
2022-10-25T22:44:48.213Z,12.80
2022-10-25T22:47:20.626Z,13.50
2022-10-25T22:49:52.778Z,10.90
2022-10-25T22:54:55.490Z,11.00
2022-10-25T22:57:30.262Z,12.60
2022-10-25T23:00:02.387Z,12.70
2022-10-25T23:02:34.746Z,12.00
2022-10-25T23:05:08.140Z,10.80
2022-10-25T23:07:40.223Z,11.20
2022-10-25T23:12:47.977Z,12.70
2022-10-25T23:15:20.431Z,10.70
2022-10-25T23:17:52.819Z,10.50
2022-10-25T23:20:24.926Z,10.00
2022-10-25T23:25:27.568Z,9.90
2022-10-25T23:30:33.632Z,19.30
2022-10-25T23:33:06.093Z,16.50
2022-10-25T23:35:39.696Z,12.10
2022-10-25T23:38:14.484Z,8.60
2022-10-25T23:40:49.689Z,11.70
2022-10-25T23:43:21.785Z,5.40
2022-10-25T23:45:53.944Z,15.70
2022-10-25T23:53:38.960Z,4.80
2022-10-25T23:56:13.604Z,7.20
2022-10-25T23:58:50.478Z,8.20
